createdAt,value
2022-10-18T00:00:03.589Z,16.85
2022-10-18T00:02:30.761Z,16.83
2022-10-18T00:04:57.822Z,18.30
2022-10-18T00:07:24.366Z,17.42
2022-10-18T00:09:51.583Z,18.15
2022-10-18T00:12:18.198Z,18.52
2022-10-18T00:14:44.741Z,17.98
2022-10-18T00:17:11.837Z,18.92
2022-10-18T00:19:38.363Z,18.33
2022-10-18T00:22:05.230Z,19.10
2022-10-18T00:24:31.971Z,19.17
2022-10-18T00:26:58.969Z,19.00
2022-10-18T00:29:25.569Z,19.17
2022-10-18T00:31:52.383Z,20.33
2022-10-18T00:34:19.397Z,20.00
2022-10-18T00:36:46.154Z,19.98
2022-10-18T00:39:20.168Z,20.45
2022-10-18T00:41:47.872Z,19.33
2022-10-18T00:44:14.569Z,19.38
2022-10-18T00:46:47.059Z,19.30
2022-10-18T00:49:16.163Z,19.73
2022-10-18T00:51:46.991Z,19.90
2022-10-18T00:54:15.081Z,20.90
2022-10-18T00:56:41.899Z,23.02
2022-10-18T00:59:08.802Z,22.48
2022-10-18T01:01:35.390Z,21.73
2022-10-18T01:04:02.808Z,22.35
2022-10-18T01:06:30.037Z,22.48
2022-10-18T01:09:19.311Z,21.58
2022-10-18T01:11:53.258Z,21.75
2022-10-18T01:14:34.762Z,22.23
2022-10-18T01:17:08.657Z,22.42
2022-10-18T01:20:05.853Z,21.10
2022-10-18T01:22:32.632Z,21.67
2022-10-18T01:25:06.773Z,21.95
2022-10-18T01:27:36.089Z,22.83
2022-10-18T01:30:30.056Z,23.73
2022-10-18T01:33:26.741Z,22.08
2022-10-18T01:36:25.820Z,20.50
2022-10-18T01:38:56.630Z,24.58
2022-10-18T01:41:25.679Z,22.55
2022-10-18T01:43:57.753Z,23.73
2022-10-18T01:46:26.444Z,24.17
2022-10-18T01:48:54.595Z,23.88
2022-10-18T01:51:30.398Z,21.73
2022-10-18T01:53:57.901Z,22.60
2022-10-18T01:56:28.804Z,21.92
2022-10-18T01:59:33.124Z,22.20
2022-10-18T02:02:06.892Z,20.58
2022-10-18T02:05:07.675Z,23.27
2022-10-18T02:07:42.695Z,22.83
2022-10-18T02:10:22.643Z,23.48
2022-10-18T02:12:53.082Z,22.80
2022-10-18T02:15:33.329Z,23.23
2022-10-18T02:18:03.473Z,23.35
2022-10-18T02:20:32.418Z,25.38
2022-10-18T02:23:01.438Z,24.70
2022-10-18T02:25:30.856Z,26.77
2022-10-18T02:27:58.005Z,25.67
2022-10-18T02:30:30.542Z,25.20
2022-10-18T02:33:04.127Z,25.73
2022-10-18T02:35:44.835Z,25.70
2022-10-18T02:38:14.190Z,24.65
2022-10-18T02:40:40.856Z,25.38
2022-10-18T02:43:07.449Z,26.55
2022-10-18T02:45:34.361Z,23.42
2022-10-18T02:48:01.014Z,26.67
2022-10-18T02:50:28.003Z,25.15
2022-10-18T02:52:54.516Z,24.70
2022-10-18T02:55:21.176Z,24.83
2022-10-18T02:57:47.829Z,24.42
2022-10-18T03:00:15.012Z,23.80
2022-10-18T03:02:41.545Z,24.35
2022-10-18T03:05:08.687Z,23.80
2022-10-18T03:07:35.427Z,23.80
2022-10-18T03:10:02.272Z,22.67
2022-10-18T03:12:29.029Z,23.30
2022-10-18T03:14:55.565Z,23.00
2022-10-18T03:17:22.598Z,22.70
2022-10-18T03:19:49.221Z,22.45
2022-10-18T03:22:16.230Z,24.38
2022-10-18T03:24:42.944Z,23.80
2022-10-18T03:27:09.542Z,23.48
2022-10-18T03:29:36.710Z,24.00
2022-10-18T03:32:03.967Z,26.67
2022-10-18T03:34:30.504Z,24.95
2022-10-18T03:37:00.956Z,23.92
2022-10-18T03:39:30.034Z,24.45
2022-10-18T03:41:56.580Z,25.77
2022-10-18T03:44:23.118Z,26.30
2022-10-18T03:46:49.896Z,25.83
2022-10-18T03:49:16.734Z,27.33
2022-10-18T03:51:43.516Z,24.10
2022-10-18T03:54:10.162Z,27.38
2022-10-18T03:56:36.722Z,26.80
2022-10-18T03:59:04.535Z,27.15
2022-10-18T04:01:31.528Z,26.75
2022-10-18T04:03:58.119Z,25.88
2022-10-18T04:06:24.697Z,28.08
2022-10-18T04:08:51.232Z,25.50
2022-10-18T04:11:17.857Z,26.60
2022-10-18T04:13:44.388Z,24.83
2022-10-18T04:16:11.057Z,25.73
2022-10-18T04:18:37.920Z,25.08
2022-10-18T04:21:04.560Z,24.33
2022-10-18T04:23:32.801Z,25.15
2022-10-18T04:26:03.213Z,24.30
2022-10-18T04:28:29.835Z,22.98
2022-10-18T04:30:56.700Z,24.02
2022-10-18T04:33:23.514Z,23.83
2022-10-18T04:35:52.659Z,23.73
2022-10-18T04:38:20.415Z,21.83
2022-10-18T04:40:46.993Z,22.67
2022-10-18T04:43:13.857Z,23.60
2022-10-18T04:45:40.520Z,21.10
2022-10-18T04:48:07.120Z,22.85
2022-10-18T04:50:33.643Z,24.13
2022-10-18T04:53:00.441Z,24.23
2022-10-18T04:55:26.977Z,25.13
2022-10-18T04:57:53.691Z,22.77
2022-10-18T05:00:20.461Z,24.30
2022-10-18T05:02:47.235Z,25.60
2022-10-18T05:05:14.297Z,24.13
2022-10-18T05:07:41.721Z,24.63
2022-10-18T05:10:08.803Z,23.60
2022-10-18T05:12:35.590Z,24.38
2022-10-18T05:15:02.261Z,24.63
2022-10-18T05:17:29.374Z,25.13
2022-10-18T05:19:56.006Z,25.30
2022-10-18T05:22:22.556Z,25.33
2022-10-18T05:24:49.068Z,26.33
2022-10-18T05:27:15.644Z,26.23
2022-10-18T05:29:42.277Z,25.13
2022-10-18T05:32:08.891Z,25.13
2022-10-18T05:34:36.721Z,25.10
2022-10-18T05:37:03.402Z,24.27
2022-10-18T05:39:29.936Z,22.73
2022-10-18T05:41:58.150Z,24.65
2022-10-18T05:44:24.655Z,23.35
2022-10-18T05:46:51.207Z,22.77
2022-10-18T05:49:17.980Z,24.40
2022-10-18T05:51:44.662Z,22.20
2022-10-18T05:54:14.619Z,23.98
2022-10-18T05:56:41.813Z,22.45
2022-10-18T05:59:12.251Z,24.25
2022-10-18T06:01:40.609Z,23.10
2022-10-18T06:04:08.095Z,23.85
2022-10-18T06:06:34.716Z,25.10
2022-10-18T06:09:03.302Z,23.25
2022-10-18T06:11:30.909Z,24.70
2022-10-18T06:14:00.299Z,25.73
2022-10-18T06:16:32.233Z,24.17
2022-10-18T06:19:00.083Z,23.08
2022-10-18T06:21:27.718Z,21.75
2022-10-18T06:23:59.440Z,22.33
2022-10-18T06:26:27.745Z,22.48
2022-10-18T06:28:54.371Z,22.98
2022-10-18T06:31:21.368Z,24.15
2022-10-18T06:33:48.064Z,22.40
2022-10-18T06:36:17.365Z,24.50
2022-10-18T06:38:45.009Z,23.88
2022-10-18T06:41:11.688Z,23.70
2022-10-18T06:43:38.404Z,24.00
2022-10-18T06:46:07.819Z,23.42
2022-10-18T06:48:37.012Z,24.48
2022-10-18T06:51:05.763Z,24.17
2022-10-18T06:53:35.241Z,22.52
2022-10-18T06:56:07.215Z,22.23
2022-10-18T06:58:35.269Z,21.52
2022-10-18T07:01:16.153Z,20.48
2022-10-18T07:03:43.905Z,20.30
2022-10-18T07:06:12.853Z,19.70
2022-10-18T07:08:40.505Z,20.67
2022-10-18T07:11:08.057Z,20.98
2022-10-18T07:13:34.765Z,22.05
2022-10-18T07:16:04.504Z,21.65
2022-10-18T07:18:33.192Z,20.75
2022-10-18T07:21:05.255Z,22.42
2022-10-18T07:23:37.047Z,22.23
2022-10-18T07:26:11.591Z,22.05
2022-10-18T07:28:38.466Z,21.77
2022-10-18T07:31:06.491Z,21.55
2022-10-18T07:33:33.849Z,22.08
2022-10-18T07:36:05.361Z,22.23
2022-10-18T07:38:32.343Z,20.30
2022-10-18T07:41:04.575Z,18.33
2022-10-18T07:43:31.228Z,18.20
2022-10-18T07:46:00.494Z,19.73
2022-10-18T07:48:27.483Z,18.08
2022-10-18T07:50:54.599Z,18.55
2022-10-18T07:53:21.188Z,19.75
2022-10-18T07:55:47.775Z,18.83
2022-10-18T07:58:14.310Z,16.50
2022-10-18T08:00:40.962Z,16.83
2022-10-18T08:03:07.570Z,18.33
2022-10-18T08:05:34.278Z,17.50
2022-10-18T08:08:04.227Z,19.45
2022-10-18T08:10:36.263Z,18.27
2022-10-18T08:13:02.805Z,17.95
2022-10-18T08:15:29.333Z,17.08
2022-10-18T08:17:55.824Z,18.13
2022-10-18T08:20:31.201Z,16.58
2022-10-18T08:23:00.445Z,16.23
2022-10-18T08:25:28.793Z,16.27
2022-10-18T08:27:55.358Z,15.30
2022-10-18T08:30:23.434Z,15.88
2022-10-18T08:32:50.052Z,17.20
2022-10-18T08:35:16.787Z,14.50
2022-10-18T08:37:45.281Z,17.20
2022-10-18T08:40:15.841Z,15.95
2022-10-18T08:43:03.528Z,16.40
2022-10-18T08:45:42.465Z,15.73
2022-10-18T08:48:39.753Z,16.75
2022-10-18T08:51:22.801Z,16.15
2022-10-18T08:54:01.965Z,15.10
2022-10-18T08:56:28.514Z,17.90
2022-10-18T08:58:55.321Z,17.48
2022-10-18T09:01:34.141Z,18.25
2022-10-18T09:04:15.336Z,17.75
2022-10-18T09:07:02.032Z,20.08
2022-10-18T09:10:00.849Z,17.55
2022-10-18T09:12:36.286Z,18.60
2022-10-18T09:15:27.726Z,17.33
2022-10-18T09:18:03.387Z,18.55
2022-10-18T09:20:57.595Z,17.60
2022-10-18T09:23:45.895Z,16.45
2022-10-18T09:26:21.200Z,15.77
2022-10-18T09:29:10.800Z,17.95
2022-10-18T09:32:04.879Z,16.75
2022-10-18T09:34:50.897Z,15.30
2022-10-18T09:37:20.902Z,15.55
2022-10-18T09:39:50.529Z,15.93
2022-10-18T09:42:30.695Z,15.70
2022-10-18T09:45:14.092Z,14.18
2022-10-18T09:47:47.829Z,14.43
2022-10-18T09:50:29.649Z,16.08
2022-10-18T09:53:12.248Z,14.30
2022-10-18T09:56:02.385Z,14.32
2022-10-18T09:58:44.614Z,13.27
2022-10-18T10:01:15.667Z,12.50
2022-10-18T10:03:42.693Z,11.38
2022-10-18T10:06:12.312Z,12.02
2022-10-18T10:08:44.482Z,12.05
2022-10-18T10:11:50.732Z,12.83
2022-10-18T10:14:25.945Z,11.30
2022-10-18T10:17:20.775Z,8.90
2022-10-18T10:19:59.129Z,9.18
2022-10-18T10:22:39.188Z,8.82
2022-10-18T10:25:07.286Z,8.43
2022-10-18T10:27:43.372Z,8.57
2022-10-18T10:30:28.574Z,8.27
2022-10-18T10:32:56.629Z,9.20
2022-10-18T10:38:27.395Z,8.32
2022-10-18T10:40:54.706Z,6.65
2022-10-18T10:43:39.137Z,5.43
2022-10-18T10:46:20.598Z,4.97
2022-10-18T10:49:04.467Z,5.18
2022-10-18T10:51:41.173Z,6.82
2022-10-18T10:54:17.896Z,5.65
2022-10-18T10:57:05.409Z,4.75
2022-10-18T10:59:51.522Z,4.85
2022-10-18T11:02:28.771Z,4.97
2022-10-18T11:04:57.294Z,3.28
2022-10-18T11:07:44.222Z,4.10
2022-10-18T11:10:10.741Z,4.35
2022-10-18T11:12:43.284Z,3.20
2022-10-18T11:15:16.056Z,2.63
2022-10-18T11:17:46.393Z,2.53
2022-10-18T11:20:13.066Z,2.63
2022-10-18T11:22:51.895Z,3.35
2022-10-18T11:25:22.073Z,3.35
2022-10-18T11:27:57.588Z,3.65
2022-10-18T11:30:48.989Z,3.58
2022-10-18T11:34:03.506Z,3.40
2022-10-18T11:36:55.015Z,3.17
2022-10-18T11:39:45.641Z,3.17
2022-10-18T11:42:23.996Z,3.08
2022-10-18T11:45:12.046Z,1.88
2022-10-18T11:47:55.724Z,2.50
2022-10-18T11:50:49.838Z,2.60
2022-10-18T11:53:28.376Z,2.30
2022-10-18T11:56:25.890Z,2.15
2022-10-18T11:59:11.897Z,2.33
2022-10-18T12:01:49.792Z,1.77
2022-10-18T12:04:20.264Z,1.65
2022-10-18T12:06:50.523Z,2.00
2022-10-18T12:09:44.181Z,1.45
2022-10-18T12:12:23.779Z,1.90
2022-10-18T12:15:07.229Z,1.92
2022-10-18T12:17:46.187Z,1.50
2022-10-18T12:20:27.888Z,1.92
2022-10-18T12:23:02.915Z,1.75
2022-10-18T12:25:32.769Z,1.63
2022-10-18T12:28:20.668Z,1.30
2022-10-18T12:31:05.518Z,1.60
2022-10-18T12:33:39.523Z,1.20
2022-10-18T12:36:29.381Z,1.55
2022-10-18T12:39:00.471Z,1.35
2022-10-18T12:41:30.054Z,1.38
2022-10-18T12:44:03.690Z,1.65
2022-10-18T12:46:59.511Z,1.58
2022-10-18T12:49:40.154Z,1.40
2022-10-18T12:52:26.711Z,0.95
2022-10-18T12:55:15.179Z,1.05
2022-10-18T12:57:52.725Z,1.27
2022-10-18T13:00:31.708Z,1.60
2022-10-18T13:03:10.724Z,1.20
2022-10-18T13:05:53.884Z,1.02
2022-10-18T13:08:38.124Z,1.40
2022-10-18T13:11:10.629Z,1.30
2022-10-18T13:13:50.674Z,1.50
2022-10-18T13:16:23.496Z,1.40
2022-10-18T13:21:50.437Z,1.00
2022-10-18T13:24:39.556Z,0.93
2022-10-18T13:27:36.312Z,0.80
2022-10-18T13:30:24.718Z,0.95
2022-10-18T13:33:17.107Z,1.13
2022-10-18T13:36:05.449Z,1.07
2022-10-18T13:38:38.285Z,0.93
2022-10-18T13:43:53.336Z,1.08
2022-10-18T13:46:20.898Z,1.10
2022-10-18T13:49:10.093Z,1.05
2022-10-18T13:51:51.935Z,1.15
2022-10-18T13:54:36.961Z,0.85
2022-10-18T13:57:29.804Z,1.00
2022-10-18T14:00:16.757Z,0.95
2022-10-18T14:03:01.993Z,1.00
2022-10-18T14:05:51.896Z,1.10
2022-10-18T14:11:24.956Z,0.90
2022-10-18T14:13:54.963Z,1.17
2022-10-18T14:16:27.880Z,0.90
2022-10-18T14:19:01.720Z,1.02
2022-10-18T14:21:37.749Z,1.10
2022-10-18T14:24:17.782Z,1.50
2022-10-18T14:26:44.359Z,1.20
2022-10-18T14:29:19.501Z,0.90
2022-10-18T14:31:53.630Z,0.93
2022-10-18T14:34:21.717Z,0.85
2022-10-18T14:36:49.717Z,1.00
2022-10-18T14:39:28.145Z,1.20
2022-10-18T14:41:56.603Z,1.10
2022-10-18T14:44:27.482Z,1.20
2022-10-18T14:47:16.396Z,1.00
2022-10-18T14:49:44.726Z,1.65
2022-10-18T14:52:15.577Z,1.08
2022-10-18T14:54:42.793Z,1.35
2022-10-18T14:57:18.004Z,1.17
2022-10-18T14:59:51.865Z,1.17
2022-10-18T15:02:24.278Z,1.33
2022-10-18T15:05:16.497Z,1.17
2022-10-18T15:07:44.220Z,1.67
2022-10-18T15:10:17.184Z,1.42
2022-10-18T15:13:08.231Z,1.30
2022-10-18T15:15:34.722Z,1.17
2022-10-18T15:18:02.256Z,1.13
2022-10-18T15:20:31.912Z,1.15
2022-10-18T15:23:23.298Z,1.13
2022-10-18T15:25:51.739Z,1.42
2022-10-18T15:28:39.437Z,1.35
2022-10-18T15:31:06.921Z,1.50
2022-10-18T15:33:36.324Z,1.33
2022-10-18T15:36:11.867Z,1.23
2022-10-18T15:38:38.919Z,1.33
2022-10-18T15:41:50.939Z,1.60
2022-10-18T15:44:32.051Z,1.60
2022-10-18T15:47:13.919Z,1.13
2022-10-18T15:49:46.392Z,0.93
2022-10-18T15:52:21.757Z,1.45
2022-10-18T15:57:20.377Z,0.90
2022-10-18T16:00:07.996Z,1.38
2022-10-18T16:02:34.528Z,1.45
2022-10-18T16:05:03.027Z,1.30
2022-10-18T16:07:29.936Z,1.70
2022-10-18T16:09:56.806Z,1.33
2022-10-18T16:12:23.354Z,1.65
2022-10-18T16:14:49.917Z,1.02
2022-10-18T16:17:17.428Z,1.88
2022-10-18T16:19:44.748Z,1.42
2022-10-18T16:24:40.734Z,1.60
2022-10-18T16:27:07.450Z,1.48
2022-10-18T16:29:34.566Z,0.95
2022-10-18T16:32:01.294Z,1.20
2022-10-18T16:34:28.057Z,1.70
2022-10-18T16:36:55.148Z,1.60
2022-10-18T16:39:22.382Z,1.60
2022-10-18T16:41:49.280Z,1.73
2022-10-18T16:44:17.185Z,1.60
2022-10-18T16:46:44.262Z,1.92
2022-10-18T16:49:23.994Z,1.90
2022-10-18T16:51:54.893Z,1.23
2022-10-18T16:54:22.154Z,1.63
2022-10-18T16:56:50.266Z,1.77
2022-10-18T16:59:25.773Z,1.30
2022-10-18T17:01:52.345Z,1.80
2022-10-18T17:04:18.936Z,1.58
2022-10-18T17:06:45.663Z,1.17
2022-10-18T17:09:15.001Z,1.65
2022-10-18T17:11:42.857Z,1.02
2022-10-18T17:14:09.397Z,1.00
2022-10-18T17:16:38.908Z,1.90
2022-10-18T17:19:08.180Z,0.98
2022-10-18T17:21:35.306Z,1.02
2022-10-18T17:24:03.288Z,1.58
2022-10-18T17:26:30.693Z,1.45
2022-10-18T17:29:01.118Z,1.38
2022-10-18T17:31:29.089Z,1.40
2022-10-18T17:33:55.879Z,1.23
2022-10-18T17:36:22.958Z,1.63
2022-10-18T17:38:53.882Z,1.20
2022-10-18T17:41:21.082Z,1.65
2022-10-18T17:43:48.672Z,1.60
2022-10-18T17:46:16.103Z,1.27
2022-10-18T17:48:43.209Z,1.58
2022-10-18T17:51:11.529Z,1.42
2022-10-18T17:53:38.412Z,1.38
2022-10-18T17:56:07.396Z,1.30
2022-10-18T17:58:34.222Z,1.73
2022-10-18T18:01:19.108Z,1.88
2022-10-18T18:03:47.807Z,1.50
2022-10-18T18:06:20.865Z,1.40
2022-10-18T18:11:15.226Z,1.08
2022-10-18T18:13:41.862Z,1.30
2022-10-18T18:16:14.608Z,1.60
2022-10-18T18:18:41.594Z,1.60
2022-10-18T18:21:08.204Z,1.48
2022-10-18T18:23:34.743Z,1.40
2022-10-18T18:26:01.332Z,1.10
2022-10-18T18:28:27.953Z,1.33
2022-10-18T18:30:54.580Z,1.75
2022-10-18T18:33:21.194Z,1.30
2022-10-18T18:35:55.774Z,1.75
2022-10-18T18:38:22.282Z,1.33
2022-10-18T18:40:48.927Z,1.70
2022-10-18T18:43:23.516Z,1.40
2022-10-18T18:45:51.996Z,1.50
2022-10-18T18:48:19.893Z,1.65
2022-10-18T18:50:51.856Z,1.35
2022-10-18T18:53:19.227Z,1.65
2022-10-18T18:55:45.963Z,1.52
2022-10-18T18:58:12.641Z,1.42
2022-10-18T19:00:43.531Z,1.48
2022-10-18T19:03:12.150Z,1.48
2022-10-18T19:05:38.940Z,1.42
2022-10-18T19:08:05.983Z,1.70
2022-10-18T19:10:32.618Z,1.45
2022-10-18T19:12:59.332Z,1.27
2022-10-18T19:15:26.159Z,1.40
2022-10-18T19:17:52.708Z,2.00
2022-10-18T19:20:19.629Z,1.60
2022-10-18T19:22:46.473Z,1.38
2022-10-18T19:25:13.539Z,1.67
2022-10-18T19:27:40.254Z,1.88
2022-10-18T19:30:10.964Z,1.45
2022-10-18T19:32:37.499Z,1.73
2022-10-18T19:35:04.928Z,1.27
2022-10-18T19:37:31.782Z,1.33
2022-10-18T19:39:59.530Z,1.60
2022-10-18T19:42:28.963Z,1.85
2022-10-18T19:44:57.799Z,1.70
2022-10-18T19:47:24.549Z,1.60
2022-10-18T19:49:52.790Z,1.85
2022-10-18T19:52:19.471Z,1.60
2022-10-18T19:54:48.774Z,1.55
2022-10-18T19:57:15.827Z,1.40
2022-10-18T19:59:42.492Z,1.65
2022-10-18T20:02:14.157Z,1.98
2022-10-18T20:04:40.791Z,1.88
2022-10-18T20:07:07.321Z,1.55
2022-10-18T20:09:34.169Z,1.55
2022-10-18T20:12:00.746Z,1.30
2022-10-18T20:14:27.265Z,1.70
2022-10-18T20:16:53.994Z,1.52
2022-10-18T20:19:20.526Z,1.55
2022-10-18T20:21:47.399Z,1.38
2022-10-18T20:24:13.964Z,1.52
2022-10-18T20:26:40.671Z,1.52
2022-10-18T20:29:08.082Z,1.50
2022-10-18T20:31:38.400Z,1.60
2022-10-18T20:34:07.773Z,1.38
2022-10-18T20:36:34.953Z,1.90
2022-10-18T20:39:02.368Z,2.00
2022-10-18T20:41:32.140Z,2.25
2022-10-18T20:44:01.293Z,1.60
2022-10-18T20:46:31.352Z,1.67
2022-10-18T20:48:58.251Z,1.80
2022-10-18T20:51:24.892Z,1.83
2022-10-18T20:53:53.611Z,1.60
2022-10-18T20:56:23.143Z,1.40
2022-10-18T20:58:51.825Z,2.05
2022-10-18T21:01:21.925Z,1.70
2022-10-18T21:03:50.979Z,1.70
2022-10-18T21:06:23.718Z,1.40
2022-10-18T21:08:55.994Z,1.50
2022-10-18T21:11:23.166Z,1.50
2022-10-18T21:13:51.503Z,2.20
2022-10-18T21:16:18.287Z,1.63
2022-10-18T21:18:45.110Z,1.42
2022-10-18T21:23:46.047Z,1.85
2022-10-18T21:26:18.876Z,1.73
2022-10-18T21:28:46.246Z,1.75
2022-10-18T21:31:16.157Z,1.45
2022-10-18T21:33:44.490Z,1.60
2022-10-18T21:36:11.758Z,1.90
2022-10-18T21:38:38.868Z,1.92
2022-10-18T21:41:10.595Z,1.65
2022-10-18T21:43:41.280Z,2.03
2022-10-18T21:46:10.137Z,1.90
2022-10-18T21:48:37.798Z,1.90
2022-10-18T21:51:06.696Z,2.15
2022-10-18T21:53:33.504Z,1.60
2022-10-18T21:56:11.655Z,1.27
2022-10-18T21:58:39.014Z,1.58
2022-10-18T22:01:13.790Z,1.90
2022-10-18T22:03:40.743Z,1.75
2022-10-18T22:06:13.240Z,1.65
2022-10-18T22:08:53.220Z,2.10
2022-10-18T22:11:23.187Z,1.70
2022-10-18T22:13:49.781Z,1.77
2022-10-18T22:16:17.133Z,1.92
2022-10-18T22:18:45.188Z,2.25
2022-10-18T22:21:13.688Z,1.75
2022-10-18T22:23:46.542Z,1.40
2022-10-18T22:26:15.128Z,1.95
2022-10-18T22:28:42.927Z,1.92
2022-10-18T22:31:21.511Z,1.80
2022-10-18T22:33:53.526Z,1.40
2022-10-18T22:36:20.413Z,1.77
2022-10-18T22:38:47.003Z,1.92
2022-10-18T22:41:13.788Z,1.60
2022-10-18T22:43:40.858Z,1.73
2022-10-18T22:46:10.942Z,1.92
2022-10-18T22:48:37.965Z,1.90
2022-10-18T22:51:05.519Z,1.50
2022-10-18T22:53:33.177Z,1.50
2022-10-18T22:56:00.438Z,1.77
2022-10-18T22:58:27.065Z,2.20
2022-10-18T23:01:01.593Z,2.55
2022-10-18T23:03:28.348Z,1.38
2022-10-18T23:05:55.203Z,1.75
2022-10-18T23:08:21.715Z,1.67
2022-10-18T23:10:52.609Z,1.80
2022-10-18T23:13:19.328Z,1.95
2022-10-18T23:15:45.927Z,1.90
2022-10-18T23:18:12.887Z,1.60
2022-10-18T23:20:39.542Z,2.42
2022-10-18T23:23:06.265Z,1.50
2022-10-18T23:25:36.547Z,2.08
2022-10-18T23:28:04.136Z,2.00
2022-10-18T23:30:30.814Z,1.67
2022-10-18T23:32:57.377Z,2.10
2022-10-18T23:35:23.991Z,1.40
2022-10-18T23:37:51.698Z,1.75
2022-10-18T23:40:18.318Z,1.70
2022-10-18T23:42:46.521Z,1.58
2022-10-18T23:45:13.051Z,1.60
2022-10-18T23:47:39.840Z,1.55
2022-10-18T23:50:06.692Z,1.52
2022-10-18T23:52:33.384Z,1.73
2022-10-18T23:54:59.945Z,2.00
2022-10-18T23:57:26.658Z,1.75
2022-10-18T23:59:53.575Z,1.73
